createdAt,value
2023-03-26T00:01:18.827Z,99580.47
2023-03-26T00:03:45.424Z,99579.34
2023-03-26T00:06:14.573Z,99583.91
2023-03-26T00:08:44.344Z,99579.66
2023-03-26T00:11:13.653Z,99573.66
2023-03-26T00:13:40.901Z,99566.19
2023-03-26T00:16:07.781Z,99570.69
2023-03-26T00:18:34.434Z,99552.25
2023-03-26T00:21:03.725Z,99568.13
2023-03-26T00:23:31.777Z,99553.13
2023-03-26T00:25:58.838Z,99559.91
2023-03-26T00:28:25.470Z,99567.22
2023-03-26T00:31:04.173Z,99561.56
2023-03-26T00:33:31.607Z,99571.72
2023-03-26T00:36:01.919Z,99564.47
2023-03-26T00:38:30.582Z,99564.63
2023-03-26T00:41:00.483Z,99568.50
2023-03-26T00:43:27.085Z,99569.78
2023-03-26T00:45:55.255Z,99569.03
2023-03-26T00:48:28.968Z,99559.13
2023-03-26T00:51:01.136Z,99560.25
2023-03-26T00:53:27.715Z,99558.97
2023-03-26T00:55:54.497Z,99556.41
2023-03-26T00:58:21.169Z,99554.75
2023-03-26T01:00:57.280Z,99548.22
2023-03-26T01:03:27.452Z,99541.94
2023-03-26T01:06:03.185Z,99543.31
2023-03-26T01:08:44.548Z,99545.53
2023-03-26T01:11:32.470Z,99541.81
2023-03-26T01:14:01.796Z,99548.59
2023-03-26T01:16:35.545Z,99551.88
2023-03-26T01:19:02.336Z,99544.94
2023-03-26T01:21:29.968Z,99538.34
2023-03-26T01:23:57.538Z,99547.00
2023-03-26T01:26:59.415Z,99554.91
2023-03-26T01:29:49.479Z,99552.75
2023-03-26T01:32:39.421Z,99550.09
2023-03-26T01:35:26.957Z,99553.81
2023-03-26T01:37:59.399Z,99551.34
2023-03-26T01:40:35.581Z,99547.59
2023-03-26T01:43:26.059Z,99550.81
2023-03-26T01:45:54.005Z,99549.47
2023-03-26T01:48:20.833Z,99547.13
2023-03-26T01:50:47.511Z,99549.31
2023-03-26T01:53:14.845Z,99549.16
2023-03-26T01:56:19.818Z,99544.72
2023-03-26T01:58:52.486Z,99533.41
2023-03-26T02:01:27.946Z,99542.03
2023-03-26T02:04:03.120Z,99542.09
2023-03-26T02:06:45.136Z,99546.47
2023-03-26T02:09:16.759Z,99549.38
2023-03-26T02:11:45.240Z,99551.69
2023-03-26T02:14:13.907Z,99555.34
2023-03-26T02:16:41.069Z,99558.97
2023-03-26T02:19:07.690Z,99555.25
2023-03-26T02:21:34.384Z,99563.25
2023-03-26T02:24:01.359Z,99565.38
2023-03-26T02:26:32.309Z,99563.72
2023-03-26T02:29:00.182Z,99569.53
2023-03-26T02:31:30.163Z,99565.03
2023-03-26T02:33:57.034Z,99576.09
2023-03-26T02:36:24.500Z,99563.31
2023-03-26T02:38:51.211Z,99573.28
2023-03-26T02:41:17.838Z,99574.34
2023-03-26T02:43:44.481Z,99563.97
2023-03-26T02:46:11.108Z,99563.59
2023-03-26T02:48:37.742Z,99559.22
2023-03-26T02:51:05.038Z,99552.66
2023-03-26T02:53:31.681Z,99555.50
2023-03-26T02:55:59.618Z,99552.63
2023-03-26T02:58:27.341Z,99551.72
2023-03-26T03:00:54.217Z,99551.16
2023-03-26T03:03:22.177Z,99551.28
2023-03-26T03:05:48.804Z,99551.50
2023-03-26T03:08:15.440Z,99547.91
2023-03-26T03:10:42.238Z,99557.19
2023-03-26T03:13:08.868Z,99563.56
2023-03-26T03:15:35.577Z,99564.44
2023-03-26T03:18:02.602Z,99570.84
2023-03-26T03:20:29.244Z,99556.59
2023-03-26T03:22:55.972Z,99555.47
2023-03-26T03:25:22.590Z,99552.25
2023-03-26T03:27:49.259Z,99560.97
2023-03-26T03:30:15.968Z,99563.06
2023-03-26T03:32:42.692Z,99565.63
2023-03-26T03:35:09.435Z,99563.09
2023-03-26T03:37:36.212Z,99563.53
2023-03-26T03:40:02.919Z,99562.59
2023-03-26T03:42:29.493Z,99559.28
2023-03-26T03:44:56.143Z,99554.06
2023-03-26T03:47:22.804Z,99559.50
2023-03-26T03:49:49.408Z,99568.28
2023-03-26T03:52:16.255Z,99563.53
2023-03-26T03:54:42.910Z,99578.38
2023-03-26T03:57:09.595Z,99577.97
2023-03-26T03:59:36.185Z,99592.56
2023-03-26T04:02:02.871Z,99580.09
2023-03-26T04:04:29.699Z,99575.84
2023-03-26T04:06:56.331Z,99582.75
2023-03-26T04:09:22.937Z,99587.81
2023-03-26T04:11:49.607Z,99584.56
2023-03-26T04:14:16.214Z,99588.00
2023-03-26T04:16:42.792Z,99576.25
2023-03-26T04:19:09.460Z,99590.25
2023-03-26T04:21:36.086Z,99587.50
2023-03-26T04:24:03.020Z,99582.88
2023-03-26T04:26:29.677Z,99587.31
2023-03-26T04:29:00.612Z,99589.84
2023-03-26T04:31:28.512Z,99575.94
2023-03-26T04:33:57.388Z,99585.91
2023-03-26T04:36:28.221Z,99571.72
2023-03-26T04:38:56.226Z,99577.22
2023-03-26T04:41:22.837Z,99582.03
2023-03-26T04:43:49.421Z,99574.94
2023-03-26T04:46:20.289Z,99571.84
2023-03-26T04:48:47.748Z,99572.59
2023-03-26T04:51:15.657Z,99582.13
2023-03-26T04:53:42.271Z,99581.09
2023-03-26T04:56:34.958Z,99585.56
2023-03-26T04:59:02.425Z,99589.28
2023-03-26T05:01:29.076Z,99580.75
2023-03-26T05:03:55.810Z,99581.31
2023-03-26T05:06:22.533Z,99574.97
2023-03-26T05:08:49.201Z,99580.31
2023-03-26T05:11:15.918Z,99570.41
2023-03-26T05:13:42.687Z,99559.47
2023-03-26T05:16:11.348Z,99566.59
2023-03-26T05:18:38.108Z,99566.81
2023-03-26T05:21:05.466Z,99566.59
2023-03-26T05:23:32.071Z,99570.69
2023-03-26T05:25:58.701Z,99574.84
2023-03-26T05:28:25.389Z,99564.44
2023-03-26T05:30:53.285Z,99563.94
2023-03-26T05:33:21.657Z,99565.72
2023-03-26T05:35:59.605Z,99568.34
2023-03-26T05:38:26.607Z,99574.13
2023-03-26T05:40:58.061Z,99572.97
2023-03-26T05:43:24.855Z,99576.88
2023-03-26T05:45:51.456Z,99569.38
2023-03-26T05:48:18.333Z,99570.91
2023-03-26T05:50:44.926Z,99572.94
2023-03-26T05:53:11.594Z,99574.09
2023-03-26T05:55:38.261Z,99577.13
2023-03-26T05:58:04.902Z,99570.31
2023-03-26T06:00:31.652Z,99566.22
2023-03-26T06:02:58.417Z,99576.00
2023-03-26T06:05:25.213Z,99570.69
2023-03-26T06:07:52.095Z,99567.88
2023-03-26T06:10:19.121Z,99570.72
2023-03-26T06:12:45.926Z,99564.81
2023-03-26T06:15:12.614Z,99567.47
2023-03-26T06:17:39.265Z,99553.38
2023-03-26T06:20:08.712Z,99556.84
2023-03-26T06:22:36.057Z,99554.44
2023-03-26T06:25:02.717Z,99551.78
2023-03-26T06:27:29.304Z,99554.59
2023-03-26T06:29:56.018Z,99561.72
2023-03-26T06:32:22.933Z,99555.88
2023-03-26T06:34:49.644Z,99560.84
2023-03-26T06:37:16.964Z,99554.59
2023-03-26T06:39:43.549Z,99558.56
2023-03-26T06:42:10.394Z,99570.66
2023-03-26T06:44:37.048Z,99573.88
2023-03-26T06:47:03.640Z,99566.09
2023-03-26T06:49:30.433Z,99557.31
2023-03-26T06:51:57.087Z,99572.88
2023-03-26T06:54:23.715Z,99569.94
2023-03-26T06:56:50.308Z,99569.47
2023-03-26T06:59:17.073Z,99574.72
2023-03-26T07:01:44.903Z,99574.81
2023-03-26T07:04:13.145Z,99574.72
2023-03-26T07:06:39.831Z,99567.16
2023-03-26T07:09:06.455Z,99571.47
2023-03-26T07:11:33.139Z,99567.00
2023-03-26T07:13:59.750Z,99565.31
2023-03-26T07:16:26.399Z,99573.06
2023-03-26T07:18:53.223Z,99566.06
2023-03-26T07:21:20.140Z,99559.56
2023-03-26T07:23:47.263Z,99575.31
2023-03-26T07:26:26.694Z,99567.88
2023-03-26T07:29:18.430Z,99581.22
2023-03-26T07:31:56.624Z,99588.84
2023-03-26T07:34:44.531Z,99584.19
2023-03-26T07:37:25.184Z,99576.66
2023-03-26T07:39:57.771Z,99589.19
2023-03-26T07:42:40.755Z,99589.09
2023-03-26T07:45:25.031Z,99574.31
2023-03-26T07:47:51.943Z,99578.00
2023-03-26T07:50:21.890Z,99586.53
2023-03-26T07:52:48.887Z,99582.69
2023-03-26T07:55:17.006Z,99576.91
2023-03-26T07:57:53.705Z,99576.47
2023-03-26T08:00:32.547Z,99570.81
2023-03-26T08:03:04.178Z,99571.50
2023-03-26T08:05:35.132Z,99570.66
2023-03-26T08:08:19.257Z,99565.41
2023-03-26T08:11:04.434Z,99576.78
2023-03-26T08:13:54.646Z,99572.34
2023-03-26T08:16:47.341Z,99560.84
2023-03-26T08:19:25.906Z,99572.84
2023-03-26T08:22:16.187Z,99561.91
2023-03-26T08:24:59.266Z,99553.53
2023-03-26T08:27:35.219Z,99550.06
2023-03-26T08:30:11.326Z,99558.19
2023-03-26T08:32:38.578Z,99563.94
2023-03-26T08:35:05.685Z,99562.25
2023-03-26T08:37:32.358Z,99556.91
2023-03-26T08:39:59.017Z,99555.38
2023-03-26T08:42:59.714Z,99551.47
2023-03-26T08:45:52.346Z,99557.03
2023-03-26T08:48:34.193Z,99550.28
2023-03-26T08:51:37.302Z,99553.97
2023-03-26T08:54:32.698Z,99552.50
2023-03-26T08:57:17.605Z,99550.06
2023-03-26T08:59:55.356Z,99546.56
2023-03-26T09:02:42.710Z,99541.41
2023-03-26T09:05:34.100Z,99554.53
2023-03-26T09:08:12.692Z,99548.69
2023-03-26T09:10:52.270Z,99544.56
2023-03-26T09:13:27.980Z,99546.19
2023-03-26T09:16:26.594Z,99541.88
2023-03-26T09:18:55.974Z,99534.44
2023-03-26T09:22:02.553Z,99526.72
2023-03-26T09:24:59.664Z,99524.44
2023-03-26T09:27:35.528Z,99530.31
2023-03-26T09:30:20.582Z,99532.13
2023-03-26T09:33:04.258Z,99520.19
2023-03-26T09:36:15.882Z,99520.88
2023-03-26T09:38:52.547Z,99518.97
2023-03-26T09:41:37.267Z,99511.69
2023-03-26T09:44:29.996Z,99507.56
2023-03-26T09:47:14.807Z,99509.38
2023-03-26T09:50:19.522Z,99504.72
2023-03-26T09:52:49.081Z,99488.06
2023-03-26T09:55:52.901Z,99488.53
2023-03-26T09:58:43.839Z,99488.59
2023-03-26T10:01:47.943Z,99488.00
2023-03-26T10:04:39.562Z,99477.16
2023-03-26T10:07:43.304Z,99468.16
2023-03-26T10:10:35.070Z,99472.50
2023-03-26T10:13:14.889Z,99455.63
2023-03-26T10:16:03.194Z,99444.75
2023-03-26T10:19:04.408Z,99454.78
2023-03-26T10:21:46.041Z,99451.81
2023-03-26T10:24:27.728Z,99450.41
2023-03-26T10:27:09.827Z,99459.72
2023-03-26T10:30:15.899Z,99454.50
2023-03-26T10:33:04.032Z,99492.88
2023-03-26T10:36:05.000Z,99499.91
2023-03-26T10:38:53.165Z,99502.13
2023-03-26T10:42:04.214Z,99489.13
2023-03-26T10:44:55.789Z,99489.50
2023-03-26T10:47:37.311Z,99473.72
2023-03-26T10:50:17.151Z,99452.91
2023-03-26T10:53:33.235Z,99441.38
2023-03-26T10:56:40.394Z,99442.84
2023-03-26T10:59:09.839Z,99430.69
2023-03-26T11:01:57.860Z,99424.28
2023-03-26T11:04:24.555Z,99407.91
2023-03-26T11:06:56.413Z,99405.16
2023-03-26T11:09:37.761Z,99400.97
2023-03-26T11:12:26.675Z,99398.16
2023-03-26T11:15:00.943Z,99395.50
2023-03-26T11:17:51.039Z,99384.72
2023-03-26T11:20:36.450Z,99378.03
2023-03-26T11:23:40.250Z,99379.88
2023-03-26T11:26:21.719Z,99388.94
2023-03-26T11:29:04.558Z,99380.81
2023-03-26T11:32:08.063Z,99368.63
2023-03-26T11:34:51.803Z,99357.88
2023-03-26T11:37:33.869Z,99352.44
2023-03-26T11:40:04.810Z,99341.06
2023-03-26T11:42:32.210Z,99342.44
2023-03-26T11:45:18.540Z,99333.50
2023-03-26T11:47:52.833Z,99325.84
2023-03-26T11:50:27.927Z,99327.47
2023-03-26T11:52:59.630Z,99320.91
2023-03-26T11:55:26.949Z,99316.53
2023-03-26T11:57:58.186Z,99315.47
2023-03-26T12:00:27.351Z,99311.00
2023-03-26T12:02:59.432Z,99305.09
2023-03-26T12:05:28.440Z,99290.78
2023-03-26T12:08:19.323Z,99287.72
2023-03-26T12:10:51.567Z,99286.31
2023-03-26T12:13:21.358Z,99280.72
2023-03-26T12:15:48.324Z,99268.41
2023-03-26T12:18:33.140Z,99266.50
2023-03-26T12:21:12.282Z,99262.25
2023-03-26T12:24:01.515Z,99263.38
2023-03-26T12:26:44.802Z,99250.91
2023-03-26T12:29:14.865Z,99240.63
2023-03-26T12:31:51.353Z,99231.69
2023-03-26T12:34:23.947Z,99223.72
2023-03-26T12:36:55.974Z,99230.59
2023-03-26T12:40:10.521Z,99229.72
2023-03-26T12:44:46.499Z,99223.78
2023-03-26T12:45:21.090Z,99219.69
2023-03-26T12:48:01.069Z,99208.25
2023-03-26T12:50:53.519Z,99197.44
2023-03-26T12:53:35.485Z,99185.88
2023-03-26T12:56:31.932Z,99187.59
2023-03-26T12:59:28.378Z,99187.19
2023-03-26T13:02:06.848Z,99186.00
2023-03-26T13:05:05.695Z,99180.84
2023-03-26T13:07:45.660Z,99186.38
2023-03-26T13:10:30.523Z,99169.06
2023-03-26T13:13:22.237Z,99175.97
2023-03-26T13:15:52.905Z,99171.13
2023-03-26T13:18:57.408Z,99158.38
2023-03-26T13:21:45.637Z,99156.00
2023-03-26T13:24:24.291Z,99146.81
2023-03-26T13:27:24.993Z,99131.66
2023-03-26T13:30:03.438Z,99127.13
2023-03-26T13:32:49.136Z,99131.38
2023-03-26T13:35:37.268Z,99127.97
2023-03-26T13:38:29.840Z,99118.34
2023-03-26T13:41:33.544Z,99119.75
2023-03-26T13:44:13.288Z,99110.59
2023-03-26T13:46:48.432Z,99109.28
2023-03-26T13:49:26.601Z,99108.69
2023-03-26T13:52:15.147Z,99099.06
2023-03-26T13:55:09.064Z,99098.72
2023-03-26T13:57:41.781Z,99099.06
2023-03-26T14:00:42.619Z,99097.19
2023-03-26T14:03:38.686Z,99085.63
2023-03-26T14:06:28.387Z,99081.38
2023-03-26T14:09:01.009Z,99075.44
2023-03-26T14:11:51.724Z,99069.28
2023-03-26T14:14:38.936Z,99063.53
2023-03-26T14:17:14.872Z,99059.66
2023-03-26T14:19:49.553Z,99061.09
2023-03-26T14:22:19.186Z,99055.59
2023-03-26T14:25:24.269Z,99049.09
2023-03-26T14:28:06.706Z,99051.78
2023-03-26T14:31:02.947Z,99055.94
2023-03-26T14:34:01.796Z,99041.09
2023-03-26T14:37:08.037Z,99044.53
2023-03-26T14:39:37.930Z,99041.56
2023-03-26T14:42:19.520Z,99041.00
2023-03-26T14:44:52.204Z,99022.91
2023-03-26T14:47:26.361Z,99021.81
2023-03-26T14:50:11.424Z,99029.16
2023-03-26T14:52:50.995Z,99039.38
2023-03-26T14:55:32.057Z,99020.78
2023-03-26T14:58:01.599Z,99022.38
2023-03-26T15:01:06.834Z,99015.25
2023-03-26T15:04:03.693Z,99002.41
2023-03-26T15:07:01.400Z,99005.53
2023-03-26T15:09:49.873Z,98990.72
2023-03-26T15:12:44.622Z,98984.63
2023-03-26T15:15:20.267Z,98995.06
2023-03-26T15:17:56.003Z,98983.19
2023-03-26T15:20:49.830Z,98978.34
2023-03-26T15:23:41.270Z,98976.50
2023-03-26T15:26:45.237Z,98970.72
2023-03-26T15:29:43.928Z,98969.88
2023-03-26T15:32:28.864Z,98967.66
2023-03-26T15:35:19.919Z,98968.13
2023-03-26T15:38:05.001Z,98958.78
2023-03-26T15:41:02.312Z,98959.41
2023-03-26T15:44:23.690Z,98957.63
2023-03-26T15:47:01.818Z,98950.59
2023-03-26T15:49:41.722Z,98952.00
2023-03-26T15:52:17.082Z,98942.53
2023-03-26T15:54:57.522Z,98948.59
2023-03-26T15:57:45.130Z,98950.72
2023-03-26T16:00:20.386Z,98945.88
2023-03-26T16:03:27.710Z,98944.28
2023-03-26T16:06:03.261Z,98937.72
2023-03-26T16:08:54.920Z,98930.09
2023-03-26T16:11:44.199Z,98925.19
2023-03-26T16:14:24.853Z,98914.78
2023-03-26T16:16:55.262Z,98919.19
2023-03-26T16:19:21.911Z,98916.06
2023-03-26T16:22:01.579Z,98896.81
2023-03-26T16:24:32.323Z,98900.22
2023-03-26T16:27:06.668Z,98890.72
2023-03-26T16:29:35.339Z,98881.16
2023-03-26T16:32:16.726Z,98877.38
2023-03-26T16:34:58.094Z,98885.53
2023-03-26T16:37:33.670Z,98881.44
2023-03-26T16:40:18.715Z,98874.94
2023-03-26T16:43:03.014Z,98877.81
2023-03-26T16:45:38.315Z,98866.84
2023-03-26T16:48:04.923Z,98872.97
2023-03-26T16:50:55.244Z,98864.66
2023-03-26T16:53:33.725Z,98873.44
2023-03-26T16:56:33.063Z,98877.94
2023-03-26T16:59:25.222Z,98882.25
2023-03-26T17:02:05.867Z,98881.47
2023-03-26T17:04:34.155Z,98881.38
2023-03-26T17:07:14.247Z,98886.38
2023-03-26T17:09:49.648Z,98882.25
2023-03-26T17:12:43.050Z,98879.34
2023-03-26T17:15:21.996Z,98882.28
2023-03-26T17:18:03.535Z,98881.00
2023-03-26T17:20:42.491Z,98872.50
2023-03-26T17:23:23.522Z,98873.91
2023-03-26T17:25:59.342Z,98878.84
2023-03-26T17:28:55.492Z,98879.13
2023-03-26T17:31:43.980Z,98879.47
2023-03-26T17:34:32.186Z,98880.91
2023-03-26T17:36:59.143Z,98882.81
2023-03-26T17:39:40.915Z,98879.41
2023-03-26T17:42:25.489Z,98877.88
2023-03-26T17:44:53.213Z,98886.03
2023-03-26T17:47:37.066Z,98875.44
2023-03-26T17:50:15.132Z,98879.97
2023-03-26T17:52:55.805Z,98879.41
2023-03-26T17:55:27.163Z,98871.75
2023-03-26T17:57:58.624Z,98880.47
2023-03-26T18:00:31.724Z,98869.38
2023-03-26T18:03:12.629Z,98871.75
2023-03-26T18:05:39.742Z,98874.16
2023-03-26T18:08:40.414Z,98870.59
2023-03-26T18:11:24.176Z,98875.69
2023-03-26T18:14:16.555Z,98878.78
2023-03-26T18:16:51.751Z,98874.16
2023-03-26T18:19:20.758Z,98874.03
2023-03-26T18:21:50.642Z,98863.47
2023-03-26T18:24:28.734Z,98864.63
2023-03-26T18:27:03.058Z,98860.28
2023-03-26T18:29:31.448Z,98856.44
2023-03-26T18:32:08.569Z,98859.28
2023-03-26T18:34:38.822Z,98860.59
2023-03-26T18:37:08.296Z,98857.03
2023-03-26T18:39:35.081Z,98851.97
2023-03-26T18:42:01.837Z,98849.94
2023-03-26T18:44:28.676Z,98846.66
2023-03-26T18:46:55.267Z,98837.50
2023-03-26T18:49:23.600Z,98838.19
2023-03-26T18:51:57.306Z,98829.88
2023-03-26T18:54:31.102Z,98828.03
2023-03-26T18:56:57.843Z,98823.78
2023-03-26T18:59:30.218Z,98828.91
2023-03-26T19:02:10.598Z,98823.06
2023-03-26T19:04:38.353Z,98812.56
2023-03-26T19:07:11.857Z,98806.38
2023-03-26T19:09:39.160Z,98800.59
2023-03-26T19:12:09.272Z,98797.47
2023-03-26T19:14:54.782Z,98794.19
2023-03-26T19:17:22.893Z,98789.25
2023-03-26T19:19:50.272Z,98789.56
2023-03-26T19:22:17.634Z,98786.78
2023-03-26T19:24:44.539Z,98781.59
2023-03-26T19:27:12.003Z,98776.84
2023-03-26T19:29:38.783Z,98770.34
2023-03-26T19:32:21.416Z,98775.59
2023-03-26T19:34:48.533Z,98771.47
2023-03-26T19:37:33.366Z,98766.25
2023-03-26T19:40:13.223Z,98770.31
2023-03-26T19:42:43.457Z,98761.78
2023-03-26T19:45:21.663Z,98762.25
2023-03-26T19:47:57.352Z,98746.19
2023-03-26T19:50:33.883Z,98743.19
2023-03-26T19:53:16.853Z,98741.81
2023-03-26T19:55:54.477Z,98731.34
2023-03-26T19:58:21.311Z,98723.88
2023-03-26T20:00:48.069Z,98716.97
2023-03-26T20:03:15.276Z,98713.84
2023-03-26T20:05:42.010Z,98707.97
2023-03-26T20:08:15.952Z,98698.16
2023-03-26T20:10:43.102Z,98692.78
2023-03-26T20:13:16.924Z,98687.09
2023-03-26T20:16:06.027Z,98689.03
2023-03-26T20:18:34.516Z,98682.94
2023-03-26T20:21:01.335Z,98679.16
2023-03-26T20:23:27.956Z,98663.34
2023-03-26T20:25:55.070Z,98654.47
2023-03-26T20:28:21.834Z,98653.38
2023-03-26T20:30:49.552Z,98638.50
2023-03-26T20:33:24.663Z,98640.78
2023-03-26T20:35:53.226Z,98635.31
2023-03-26T20:38:21.647Z,98623.59
2023-03-26T20:40:49.630Z,98622.84
2023-03-26T20:43:16.858Z,98623.47
2023-03-26T20:45:43.701Z,98616.88
2023-03-26T20:48:10.397Z,98613.16
2023-03-26T20:50:49.928Z,98619.56
2023-03-26T20:53:17.882Z,98621.63
2023-03-26T20:55:45.163Z,98607.78
2023-03-26T20:58:17.306Z,98611.91
2023-03-26T21:00:44.864Z,98614.75
2023-03-26T21:03:13.589Z,98610.75
2023-03-26T21:05:40.926Z,98606.72
2023-03-26T21:08:14.527Z,98604.91
2023-03-26T21:10:42.382Z,98605.22
2023-03-26T21:13:26.543Z,98612.69
2023-03-26T21:15:53.644Z,98609.72
2023-03-26T21:18:20.520Z,98612.63
2023-03-26T21:21:07.683Z,98620.44
2023-03-26T21:24:08.906Z,98610.22
2023-03-26T21:26:57.945Z,98614.25
2023-03-26T21:29:24.847Z,98609.38
2023-03-26T21:31:53.936Z,98609.25
2023-03-26T21:34:22.250Z,98602.44
2023-03-26T21:36:49.210Z,98607.75
2023-03-26T21:39:16.058Z,98612.84
2023-03-26T21:42:04.508Z,98624.41
2023-03-26T21:44:33.490Z,98628.56
2023-03-26T21:47:03.305Z,98646.50
2023-03-26T21:49:30.419Z,98642.72
2023-03-26T21:51:57.393Z,98640.56
2023-03-26T21:54:27.262Z,98641.88
2023-03-26T21:57:22.579Z,98638.00
2023-03-26T22:00:07.107Z,98635.75
2023-03-26T22:02:50.418Z,98633.09
2023-03-26T22:05:17.082Z,98634.84
2023-03-26T22:07:49.964Z,98638.25
2023-03-26T22:10:16.744Z,98638.84
2023-03-26T22:12:43.351Z,98638.47
2023-03-26T22:15:10.646Z,98637.53
2023-03-26T22:17:37.343Z,98635.63
2023-03-26T22:20:04.204Z,98632.13
2023-03-26T22:22:30.814Z,98628.94
2023-03-26T22:24:57.474Z,98622.53
2023-03-26T22:27:24.106Z,98617.00
2023-03-26T22:29:50.790Z,98615.19
2023-03-26T22:32:17.469Z,98610.69
2023-03-26T22:34:44.084Z,98617.03
2023-03-26T22:37:10.804Z,98608.84
2023-03-26T22:39:37.634Z,98610.16
2023-03-26T22:42:04.453Z,98601.56
2023-03-26T22:44:31.236Z,98613.03
2023-03-26T22:46:57.927Z,98611.72
2023-03-26T22:49:24.563Z,98611.56
2023-03-26T22:51:51.193Z,98600.97
2023-03-26T22:54:17.921Z,98598.78
2023-03-26T22:56:44.503Z,98596.38
2023-03-26T22:59:11.294Z,98591.31
2023-03-26T23:01:37.959Z,98591.06
2023-03-26T23:04:04.859Z,98599.91
2023-03-26T23:06:31.687Z,98595.63
2023-03-26T23:08:58.376Z,98575.38
2023-03-26T23:11:25.065Z,98582.47
2023-03-26T23:13:51.681Z,98582.19
2023-03-26T23:16:18.477Z,98590.75
2023-03-26T23:18:45.176Z,98576.94
2023-03-26T23:21:17.448Z,98577.66
2023-03-26T23:23:44.231Z,98581.75
2023-03-26T23:26:11.194Z,98571.38
2023-03-26T23:28:38.434Z,98569.78
2023-03-26T23:31:08.238Z,98567.50
2023-03-26T23:33:37.415Z,98567.41
2023-03-26T23:36:07.601Z,98567.31
2023-03-26T23:38:43.572Z,98550.63
2023-03-26T23:41:11.806Z,98548.41
2023-03-26T23:43:38.417Z,98542.59
2023-03-26T23:46:21.813Z,98541.50
2023-03-26T23:48:48.487Z,98521.63
2023-03-26T23:51:15.234Z,98512.16
2023-03-26T23:53:42.014Z,98492.03
2023-03-26T23:56:09.132Z,98497.81
2023-03-26T23:58:35.789Z,98505.97
